createdAt,value
2022-09-23T00:00:01.354Z,96693.00
2022-09-23T00:04:04.434Z,96696.00
2022-09-23T00:08:11.298Z,96692.00
2022-09-23T00:12:14.368Z,96686.00
2022-09-23T00:16:20.732Z,96691.00
2022-09-23T00:20:30.365Z,96691.00
2022-09-23T00:24:34.946Z,96691.00
2022-09-23T00:28:38.450Z,96686.00
2022-09-23T00:32:41.509Z,96682.00
2022-09-23T00:36:57.348Z,96678.00
2022-09-23T00:41:01.987Z,96679.00
2022-09-23T00:45:07.970Z,96670.00
2022-09-23T00:49:14.994Z,96665.00
2022-09-23T00:53:22.633Z,96673.00
2022-09-23T00:57:28.761Z,96669.00
2022-09-23T01:01:31.989Z,96664.00
2022-09-23T01:05:35.134Z,96667.00
2022-09-23T01:09:38.425Z,96649.00
2022-09-23T01:13:53.403Z,96654.00
2022-09-23T01:18:05.474Z,96651.00
2022-09-23T01:22:22.344Z,96637.00
2022-09-23T01:26:45.827Z,96634.00
2022-09-23T01:31:02.451Z,96635.00
2022-09-23T01:35:10.605Z,96632.00
2022-09-23T01:39:25.365Z,96635.00
2022-09-23T01:43:37.497Z,96635.00
2022-09-23T01:47:56.406Z,96633.00
2022-09-23T01:52:05.501Z,96620.00
2022-09-23T01:56:13.747Z,96610.00
2022-09-23T02:00:19.510Z,96626.00
2022-09-23T02:04:37.363Z,96614.00
2022-09-23T02:08:45.230Z,96620.00
2022-09-23T02:12:50.596Z,96618.00
2022-09-23T02:16:57.372Z,96614.00
2022-09-23T02:21:05.777Z,96609.00
2022-09-23T02:25:12.087Z,96611.00
2022-09-23T02:29:21.764Z,96615.00
2022-09-23T02:33:30.421Z,96615.00
2022-09-23T02:37:43.615Z,96613.00
2022-09-23T02:42:03.379Z,96614.00
2022-09-23T02:46:07.563Z,96608.00
2022-09-23T02:50:10.859Z,96599.00
2022-09-23T02:54:21.949Z,96592.00
2022-09-23T02:58:25.049Z,96606.00
2022-09-23T03:02:56.757Z,96597.00
2022-09-23T03:07:06.440Z,96595.00
2022-09-23T03:11:13.739Z,96590.00
2022-09-23T03:15:27.903Z,96590.00
2022-09-23T03:19:35.135Z,96583.00
2022-09-23T03:23:41.458Z,96585.00
2022-09-23T03:27:46.820Z,96586.00
2022-09-23T03:31:50.124Z,96584.00
2022-09-23T03:36:13.713Z,96576.00
2022-09-23T03:40:19.951Z,96578.00
2022-09-23T03:44:24.823Z,96572.00
2022-09-23T03:48:28.037Z,96569.00
2022-09-23T03:52:31.105Z,96571.00
2022-09-23T03:56:34.234Z,96570.00
2022-09-23T04:00:39.128Z,96575.00
2022-09-23T04:04:42.522Z,96570.00
2022-09-23T04:08:45.914Z,96565.00
2022-09-23T04:12:49.001Z,96561.00
2022-09-23T04:16:53.740Z,96561.00
2022-09-23T04:21:00.133Z,96559.00
2022-09-23T04:25:03.252Z,96555.00
2022-09-23T04:29:08.174Z,96551.00
2022-09-23T04:33:12.963Z,96537.00
2022-09-23T04:37:16.111Z,96543.00
2022-09-23T04:41:20.346Z,96545.00
2022-09-23T04:45:23.546Z,96548.00
2022-09-23T04:49:28.087Z,96545.00
2022-09-23T04:53:31.377Z,96548.00
2022-09-23T04:57:37.364Z,96552.00
2022-09-23T05:01:41.859Z,96551.00
2022-09-23T05:05:46.812Z,96549.00
2022-09-23T05:09:50.024Z,96553.00
2022-09-23T05:13:54.896Z,96557.00
2022-09-23T05:17:59.327Z,96558.00
2022-09-23T05:22:05.641Z,96560.00
2022-09-23T05:26:49.253Z,96557.00
2022-09-23T05:30:52.367Z,96557.00
2022-09-23T05:34:55.903Z,96550.00
2022-09-23T05:39:00.530Z,96554.00
2022-09-23T05:43:03.582Z,96546.00
2022-09-23T05:47:07.445Z,96547.00
2022-09-23T05:51:14.222Z,96547.00
2022-09-23T05:55:18.653Z,96552.00
2022-09-23T05:59:21.753Z,96550.00
2022-09-23T06:03:26.226Z,96551.00
2022-09-23T06:07:29.521Z,96547.00
2022-09-23T06:11:35.484Z,96551.00
2022-09-23T06:15:39.703Z,96555.00
2022-09-23T06:19:46.275Z,96559.00
2022-09-23T06:23:50.968Z,96566.00
2022-09-23T06:28:00.354Z,96562.00
2022-09-23T06:32:04.297Z,96555.00
2022-09-23T06:36:08.790Z,96563.00
2022-09-23T06:40:12.396Z,96561.00
2022-09-23T06:44:17.035Z,96560.00
2022-09-23T06:48:20.489Z,96568.00
2022-09-23T06:52:23.529Z,96566.00
2022-09-23T06:56:26.538Z,96563.00
2022-09-23T07:00:31.132Z,96567.00
2022-09-23T07:04:34.179Z,96577.00
2022-09-23T07:08:37.839Z,96573.00
2022-09-23T07:12:41.037Z,96575.00
2022-09-23T07:16:45.581Z,96588.00
2022-09-23T07:20:58.921Z,96595.00
2022-09-23T07:25:01.970Z,96591.00
2022-09-23T07:29:05.946Z,96582.00
2022-09-23T07:33:26.990Z,96585.00
2022-09-23T07:37:30.992Z,96576.00
2022-09-23T07:41:35.545Z,96580.00
2022-09-23T07:45:43.547Z,96585.00
2022-09-23T07:49:48.080Z,96581.00
2022-09-23T07:53:52.218Z,96596.00
2022-09-23T07:58:04.439Z,96590.00
2022-09-23T08:02:07.727Z,96587.00
2022-09-23T08:06:13.684Z,96586.00
2022-09-23T08:10:21.117Z,96590.00
2022-09-23T08:14:24.284Z,96583.00
2022-09-23T08:18:27.290Z,96592.00
2022-09-23T08:22:31.821Z,96588.00
2022-09-23T08:26:35.164Z,96590.00
2022-09-23T08:30:40.549Z,96588.00
2022-09-23T08:34:44.121Z,96582.00
2022-09-23T08:38:49.167Z,96584.00
2022-09-23T08:42:52.188Z,96579.00
2022-09-23T08:47:11.962Z,96576.00
2022-09-23T08:51:18.701Z,96584.00
2022-09-23T08:55:29.830Z,96585.00
2022-09-23T08:59:41.844Z,96593.00
2022-09-23T09:03:49.145Z,96591.00
2022-09-23T09:07:53.790Z,96580.00
2022-09-23T09:12:04.582Z,96580.00
2022-09-23T09:16:36.631Z,96583.00
2022-09-23T09:20:57.307Z,96587.00
2022-09-23T09:25:06.355Z,96586.00
2022-09-23T09:29:34.224Z,96587.00
2022-09-23T09:33:44.965Z,96582.00
2022-09-23T09:37:49.198Z,96580.00
2022-09-23T09:41:53.777Z,96577.00
2022-09-23T09:46:09.393Z,96562.00
2022-09-23T09:50:21.904Z,96562.00
2022-09-23T09:54:34.848Z,96556.00
2022-09-23T09:58:45.024Z,96551.00
2022-09-23T10:02:54.371Z,96552.00
2022-09-23T10:07:08.334Z,96551.00
2022-09-23T10:11:16.290Z,96536.00
2022-09-23T10:15:45.013Z,96527.00
2022-09-23T10:19:52.463Z,96529.00
2022-09-23T10:24:01.068Z,96517.00
2022-09-23T10:28:33.343Z,96521.00
2022-09-23T10:32:38.805Z,96519.00
2022-09-23T10:36:44.692Z,96520.00
2022-09-23T10:41:05.281Z,96519.00
2022-09-23T10:45:39.737Z,96514.00
2022-09-23T10:49:58.953Z,96513.00
2022-09-23T10:54:13.535Z,96519.00
2022-09-23T10:58:35.532Z,96508.00
2022-09-23T11:03:01.047Z,96508.00
2022-09-23T11:07:14.225Z,96504.00
2022-09-23T11:11:34.114Z,96501.00
2022-09-23T11:15:58.612Z,96502.00
2022-09-23T11:20:21.982Z,96492.00
2022-09-23T11:24:39.415Z,96491.00
2022-09-23T11:29:02.575Z,96485.00
2022-09-23T11:33:21.182Z,96478.00
2022-09-23T11:37:29.617Z,96467.00
2022-09-23T11:41:37.511Z,96470.00
2022-09-23T11:45:49.180Z,96463.00
2022-09-23T11:49:57.239Z,96458.00
2022-09-23T11:54:04.222Z,96454.00
2022-09-23T11:58:23.837Z,96451.00
2022-09-23T12:02:41.926Z,96445.00
2022-09-23T12:06:47.253Z,96441.00
2022-09-23T12:10:59.135Z,96440.00
2022-09-23T12:15:07.545Z,96439.00
2022-09-23T12:19:24.907Z,96433.00
2022-09-23T12:23:51.803Z,96432.00
2022-09-23T12:27:57.358Z,96433.00
2022-09-23T12:32:01.607Z,96421.00
2022-09-23T12:36:07.909Z,96417.00
2022-09-23T12:40:21.939Z,96416.00
2022-09-23T12:44:36.828Z,96409.00
2022-09-23T12:48:48.640Z,96405.00
2022-09-23T12:52:53.106Z,96405.00
2022-09-23T12:57:07.095Z,96393.00
2022-09-23T13:01:20.510Z,96392.00
2022-09-23T13:05:43.497Z,96388.00
2022-09-23T13:09:52.133Z,96381.00
2022-09-23T13:13:57.576Z,96375.00
2022-09-23T13:18:46.243Z,96382.00
2022-09-23T13:23:20.274Z,96372.00
2022-09-23T13:27:29.616Z,96361.00
2022-09-23T13:31:32.763Z,96362.00
2022-09-23T13:35:39.542Z,96363.00
2022-09-23T13:39:42.634Z,96356.00
2022-09-23T13:43:52.207Z,96360.00
2022-09-23T13:48:00.349Z,96352.00
2022-09-23T13:52:04.309Z,96352.00
2022-09-23T13:56:13.010Z,96351.00
2022-09-23T14:00:22.403Z,96344.00
2022-09-23T14:04:25.961Z,96344.00
2022-09-23T14:08:31.411Z,96332.00
2022-09-23T14:12:34.859Z,96333.00
2022-09-23T14:16:41.808Z,96323.00
2022-09-23T14:20:56.991Z,96328.00
2022-09-23T14:25:07.385Z,96317.00
2022-09-23T14:29:16.599Z,96316.00
2022-09-23T14:33:26.729Z,96312.00
2022-09-23T14:37:51.073Z,96307.00
2022-09-23T14:41:54.191Z,96309.00
2022-09-23T14:45:59.437Z,96302.00
2022-09-23T14:50:21.207Z,96307.00
2022-09-23T14:54:32.432Z,96303.00
2022-09-23T14:58:47.039Z,96298.00
2022-09-23T15:03:06.407Z,96289.00
2022-09-23T15:07:18.780Z,96279.00
2022-09-23T15:11:23.071Z,96279.00
2022-09-23T15:15:29.271Z,96275.00
2022-09-23T15:19:45.176Z,96275.00
2022-09-23T15:23:51.865Z,96276.00
2022-09-23T15:28:25.382Z,96269.00
2022-09-23T15:32:28.429Z,96260.00
2022-09-23T15:36:31.449Z,96264.00
2022-09-23T15:40:37.289Z,96271.00
2022-09-23T15:44:47.406Z,96263.00
2022-09-23T15:49:06.014Z,96261.00
2022-09-23T15:53:18.389Z,96258.00
2022-09-23T15:57:22.927Z,96265.00
2022-09-23T16:01:36.487Z,96266.00
2022-09-23T16:05:41.252Z,96260.00
2022-09-23T16:09:51.408Z,96246.00
2022-09-23T16:13:55.795Z,96248.00
2022-09-23T16:18:05.460Z,96248.00
2022-09-23T16:22:08.835Z,96247.00
2022-09-23T16:26:29.413Z,96257.00
2022-09-23T16:30:35.371Z,96251.00
2022-09-23T16:34:38.388Z,96255.00
2022-09-23T16:38:42.312Z,96257.00
2022-09-23T16:42:46.674Z,96245.00
2022-09-23T16:46:51.120Z,96249.00
2022-09-23T16:50:54.313Z,96250.00
2022-09-23T16:55:04.423Z,96258.00
2022-09-23T16:59:07.699Z,96253.00
2022-09-23T17:03:31.421Z,96250.00
2022-09-23T17:07:34.451Z,96249.00
2022-09-23T17:11:38.252Z,96248.00
2022-09-23T17:15:48.409Z,96241.00
2022-09-23T17:19:52.882Z,96243.00
2022-09-23T17:23:55.991Z,96238.00
2022-09-23T17:28:00.831Z,96237.00
2022-09-23T17:32:05.011Z,96241.00
2022-09-23T17:36:11.575Z,96236.00
2022-09-23T17:40:21.448Z,96244.00
2022-09-23T17:44:24.668Z,96233.00
2022-09-23T17:48:27.729Z,96237.00
2022-09-23T17:52:32.208Z,96236.00
2022-09-23T17:56:41.427Z,96235.00
2022-09-23T18:00:47.292Z,96238.00
2022-09-23T18:04:56.425Z,96245.00
2022-09-23T18:09:04.003Z,96245.00
2022-09-23T18:13:13.683Z,96251.00
2022-09-23T18:17:17.418Z,96252.00
2022-09-23T18:21:27.418Z,96252.00
2022-09-23T18:25:39.473Z,96244.00
2022-09-23T18:29:42.976Z,96246.00
2022-09-23T18:33:50.563Z,96247.00
2022-09-23T18:37:53.570Z,96247.00
2022-09-23T18:41:57.963Z,96247.00
2022-09-23T18:46:02.946Z,96240.00
2022-09-23T18:50:24.480Z,96239.00
2022-09-23T18:54:29.648Z,96245.00
2022-09-23T18:58:40.458Z,96236.00
2022-09-23T19:02:44.463Z,96232.00
2022-09-23T19:06:47.628Z,96229.00
2022-09-23T19:10:56.869Z,96217.00
2022-09-23T19:15:01.277Z,96217.00
2022-09-23T19:19:06.111Z,96212.00
2022-09-23T19:23:17.406Z,96217.00
2022-09-23T19:27:20.433Z,96217.00
2022-09-23T19:31:33.461Z,96221.00
2022-09-23T19:35:37.138Z,96223.00
2022-09-23T19:39:47.435Z,96232.00
2022-09-23T19:43:52.719Z,96231.00
2022-09-23T19:47:57.539Z,96215.00
2022-09-23T19:52:00.566Z,96218.00
2022-09-23T19:56:11.418Z,96212.00
2022-09-23T20:00:16.248Z,96206.00
2022-09-23T20:04:20.842Z,96230.00
2022-09-23T20:08:24.075Z,96217.00
2022-09-23T20:12:27.113Z,96222.00
2022-09-23T20:16:32.912Z,96231.00
2022-09-23T20:20:37.693Z,96215.00
2022-09-23T20:24:40.792Z,96216.00
2022-09-23T20:28:44.027Z,96217.00
2022-09-23T20:32:48.148Z,96209.00
2022-09-23T20:36:52.555Z,96209.00
2022-09-23T20:40:56.880Z,96201.00
2022-09-23T20:44:59.922Z,96196.00
2022-09-23T20:49:03.649Z,96195.00
2022-09-23T20:53:08.156Z,96193.00
2022-09-23T20:57:20.434Z,96192.00
2022-09-23T21:01:23.520Z,96193.00
2022-09-23T21:05:42.511Z,96190.00
2022-09-23T21:09:46.976Z,96194.00
2022-09-23T21:13:51.446Z,96189.00
2022-09-23T21:18:01.483Z,96183.00
2022-09-23T21:22:04.561Z,96184.00
2022-09-23T21:26:10.661Z,96184.00
2022-09-23T21:30:14.451Z,96173.00
2022-09-23T21:34:17.814Z,96171.00
2022-09-23T21:38:20.978Z,96173.00
2022-09-23T21:42:25.735Z,96165.00
2022-09-23T21:46:29.447Z,96165.00
2022-09-23T21:50:39.417Z,96180.00
2022-09-23T21:54:42.499Z,96181.00
2022-09-23T21:58:47.052Z,96177.00
2022-09-23T22:02:50.123Z,96179.00
2022-09-23T22:07:07.403Z,96177.00
2022-09-23T22:11:32.523Z,96167.00
2022-09-23T22:15:37.531Z,96167.00
2022-09-23T22:19:47.408Z,96166.00
2022-09-23T22:23:53.099Z,96172.00
2022-09-23T22:28:15.598Z,96175.00
2022-09-23T22:32:37.235Z,96170.00
2022-09-23T22:36:40.299Z,96167.00
2022-09-23T22:40:44.365Z,96158.00
2022-09-23T22:44:47.516Z,96148.00
2022-09-23T22:48:53.492Z,96143.00
2022-09-23T22:53:03.424Z,96140.00
2022-09-23T22:57:06.683Z,96148.00
2022-09-23T23:01:11.300Z,96140.00
2022-09-23T23:05:16.221Z,96137.00
2022-09-23T23:09:20.558Z,96140.00
2022-09-23T23:13:31.482Z,96142.00
2022-09-23T23:17:34.972Z,96137.00
2022-09-23T23:21:39.482Z,96142.00
2022-09-23T23:25:42.507Z,96146.00
2022-09-23T23:29:52.419Z,96143.00
2022-09-23T23:33:56.094Z,96139.00
2022-09-23T23:38:00.828Z,96149.00
2022-09-23T23:42:11.421Z,96147.00
2022-09-23T23:46:15.766Z,96130.00
2022-09-23T23:50:18.848Z,96127.00
2022-09-23T23:54:23.352Z,96121.00
2022-09-23T23:58:26.606Z,96121.00
